sensor_id;sensor_type;location;lat;lon;timestamp;P1;durP1;ratioP1;P2;durP2;ratioP2
25123;SDS011;13104;51.030;4.686;2024-01-06T00:01:14;5.45;;;0.90;;
25123;SDS011;13104;51.030;4.686;2024-01-06T00:03:40;1.23;;;1.10;;
25123;SDS011;13104;51.030;4.686;2024-01-06T00:06:06;9.90;;;1.75;;
25123;SDS011;13104;51.030;4.686;2024-01-06T00:08:32;0.70;;;0.70;;
25123;SDS011;13104;51.030;4.686;2024-01-06T00:10:59;2.88;;;1.38;;
25123;SDS011;13104;51.030;4.686;2024-01-06T00:13:27;2.13;;;1.02;;
25123;SDS011;13104;51.030;4.686;2024-01-06T00:15:54;7.65;;;1.85;;
25123;SDS011;13104;51.030;4.686;2024-01-06T00:18:20;3.40;;;1.55;;
25123;SDS011;13104;51.030;4.686;2024-01-06T00:20:46;1.08;;;1.00;;
25123;SDS011;13104;51.030;4.686;2024-01-06T00:23:12;5.45;;;1.13;;
25123;SDS011;13104;51.030;4.686;2024-01-06T00:25:38;0.85;;;0.80;;
25123;SDS011;13104;51.030;4.686;2024-01-06T00:28:04;13.93;;;1.30;;
25123;SDS011;13104;51.030;4.686;2024-01-06T00:30:30;0.57;;;0.50;;
25123;SDS011;13104;51.030;4.686;2024-01-06T00:32:56;2.70;;;1.05;;
25123;SDS011;13104;51.030;4.686;2024-01-06T00:35:23;1.27;;;1.17;;
25123;SDS011;13104;51.030;4.686;2024-01-06T00:37:49;1.50;;;1.02;;
25123;SDS011;13104;51.030;4.686;2024-01-06T00:40:15;2.63;;;1.38;;
25123;SDS011;13104;51.030;4.686;2024-01-06T00:42:41;1.75;;;1.20;;
25123;SDS011;13104;51.030;4.686;2024-01-06T00:45:07;2.10;;;1.55;;
25123;SDS011;13104;51.030;4.686;2024-01-06T00:47:33;3.10;;;1.48;;
25123;SDS011;13104;51.030;4.686;2024-01-06T00:49:59;4.05;;;1.20;;
25123;SDS011;13104;51.030;4.686;2024-01-06T00:52:25;3.05;;;1.45;;
25123;SDS011;13104;51.030;4.686;2024-01-06T00:54:51;16.05;;;1.30;;
25123;SDS011;13104;51.030;4.686;2024-01-06T00:57:18;8.40;;;1.15;;
25123;SDS011;13104;51.030;4.686;2024-01-06T00:59:49;3.00;;;1.42;;
25123;SDS011;13104;51.030;4.686;2024-01-06T01:02:15;0.70;;;0.70;;
25123;SDS011;13104;51.030;4.686;2024-01-06T01:04:42;1.13;;;1.02;;
25123;SDS011;13104;51.030;4.686;2024-01-06T01:07:08;13.35;;;1.45;;
25123;SDS011;13104;51.030;4.686;2024-01-06T01:09:34;1.48;;;0.95;;
25123;SDS011;13104;51.030;4.686;2024-01-06T01:12:00;2.97;;;1.10;;
25123;SDS011;13104;51.030;4.686;2024-01-06T01:14:26;0.88;;;0.68;;
25123;SDS011;13104;51.030;4.686;2024-01-06T01:16:52;0.88;;;0.82;;
25123;SDS011;13104;51.030;4.686;2024-01-06T01:19:19;3.20;;;1.08;;
25123;SDS011;13104;51.030;4.686;2024-01-06T01:21:45;1.08;;;1.00;;
25123;SDS011;13104;51.030;4.686;2024-01-06T01:24:11;1.23;;;1.10;;
25123;SDS011;13104;51.030;4.686;2024-01-06T01:26:37;1.25;;;0.77;;
25123;SDS011;13104;51.030;4.686;2024-01-06T01:29:03;1.13;;;0.82;;
25123;SDS011;13104;51.030;4.686;2024-01-06T01:31:29;1.70;;;0.88;;
25123;SDS011;13104;51.030;4.686;2024-01-06T01:33:55;0.70;;;0.70;;
25123;SDS011;13104;51.030;4.686;2024-01-06T01:36:21;1.92;;;1.02;;
25123;SDS011;13104;51.030;4.686;2024-01-06T01:38:48;0.95;;;0.85;;
25123;SDS011;13104;51.030;4.686;2024-01-06T01:41:14;1.60;;;0.80;;
25123;SDS011;13104;51.030;4.686;2024-01-06T01:43:40;0.82;;;0.82;;
25123;SDS011;13104;51.030;4.686;2024-01-06T01:46:06;7.15;;;1.00;;
25123;SDS011;13104;51.030;4.686;2024-01-06T01:48:32;1.30;;;0.80;;
25123;SDS011;13104;51.030;4.686;2024-01-06T01:50:59;0.85;;;0.80;;
25123;SDS011;13104;51.030;4.686;2024-01-06T01:53:25;0.82;;;0.82;;
25123;SDS011;13104;51.030;4.686;2024-01-06T01:55:52;1.10;;;1.00;;
25123;SDS011;13104;51.030;4.686;2024-01-06T01:58:18;1.23;;;0.73;;
25123;SDS011;13104;51.030;4.686;2024-01-06T02:00:44;1.08;;;0.93;;
25123;SDS011;13104;51.030;4.686;2024-01-06T02:03:11;3.15;;;1.30;;
25123;SDS011;13104;51.030;4.686;2024-01-06T02:05:39;0.98;;;0.70;;
25123;SDS011;13104;51.030;4.686;2024-01-06T02:08:05;1.33;;;0.95;;
25123;SDS011;13104;51.030;4.686;2024-01-06T02:10:31;2.70;;;1.20;;
25123;SDS011;13104;51.030;4.686;2024-01-06T02:12:57;3.75;;;1.25;;
25123;SDS011;13104;51.030;4.686;2024-01-06T02:15:32;1.10;;;0.95;;
25123;SDS011;13104;51.030;4.686;2024-01-06T02:17:59;0.98;;;0.93;;
25123;SDS011;13104;51.030;4.686;2024-01-06T02:20:25;4.47;;;1.17;;
25123;SDS011;13104;51.030;4.686;2024-01-06T02:22:53;1.98;;;1.55;;
25123;SDS011;13104;51.030;4.686;2024-01-06T02:25:19;2.03;;;1.65;;
25123;SDS011;13104;51.030;4.686;2024-01-06T02:27:45;2.55;;;1.50;;
25123;SDS011;13104;51.030;4.686;2024-01-06T02:30:11;4.40;;;2.30;;
25123;SDS011;13104;51.030;4.686;2024-01-06T02:32:37;2.65;;;2.42;;
25123;SDS011;13104;51.030;4.686;2024-01-06T02:35:03;5.15;;;2.10;;
25123;SDS011;13104;51.030;4.686;2024-01-06T02:37:29;4.10;;;2.45;;
25123;SDS011;13104;51.030;4.686;2024-01-06T02:39:55;4.57;;;2.88;;
25123;SDS011;13104;51.030;4.686;2024-01-06T02:42:22;7.13;;;3.15;;
25123;SDS011;13104;51.030;4.686;2024-01-06T02:44:49;3.22;;;2.47;;
25123;SDS011;13104;51.030;4.686;2024-01-06T02:47:15;5.60;;;2.80;;
25123;SDS011;13104;51.030;4.686;2024-01-06T02:49:41;5.70;;;2.65;;
25123;SDS011;13104;51.030;4.686;2024-01-06T02:52:07;9.52;;;3.03;;
25123;SDS011;13104;51.030;4.686;2024-01-06T02:54:33;5.78;;;3.35;;
25123;SDS011;13104;51.030;4.686;2024-01-06T02:56:59;25.40;;;3.03;;
25123;SDS011;13104;51.030;4.686;2024-01-06T02:59:25;6.88;;;2.70;;
25123;SDS011;13104;51.030;4.686;2024-01-06T03:01:51;5.25;;;2.55;;
25123;SDS011;13104;51.030;4.686;2024-01-06T03:04:17;7.00;;;3.25;;
25123;SDS011;13104;51.030;4.686;2024-01-06T03:06:44;6.03;;;3.45;;
25123;SDS011;13104;51.030;4.686;2024-01-06T03:09:11;4.88;;;2.95;;
25123;SDS011;13104;51.030;4.686;2024-01-06T03:11:37;6.10;;;3.28;;
25123;SDS011;13104;51.030;4.686;2024-01-06T03:14:03;7.85;;;3.08;;
25123;SDS011;13104;51.030;4.686;2024-01-06T03:16:29;3.80;;;2.40;;
25123;SDS011;13104;51.030;4.686;2024-01-06T03:18:55;6.35;;;3.10;;
25123;SDS011;13104;51.030;4.686;2024-01-06T03:21:21;3.70;;;2.63;;
25123;SDS011;13104;51.030;4.686;2024-01-06T03:23:48;7.60;;;3.03;;
25123;SDS011;13104;51.030;4.686;2024-01-06T03:26:14;6.50;;;3.10;;
25123;SDS011;13104;51.030;4.686;2024-01-06T03:28:40;4.90;;;3.47;;
25123;SDS011;13104;51.030;4.686;2024-01-06T03:31:06;3.47;;;2.35;;
25123;SDS011;13104;51.030;4.686;2024-01-06T03:33:33;5.55;;;2.90;;
25123;SDS011;13104;51.030;4.686;2024-01-06T03:36:03;5.55;;;2.65;;
25123;SDS011;13104;51.030;4.686;2024-01-06T03:38:29;4.88;;;2.83;;
25123;SDS011;13104;51.030;4.686;2024-01-06T03:40:55;3.38;;;2.58;;
25123;SDS011;13104;51.030;4.686;2024-01-06T03:43:21;3.95;;;2.67;;
25123;SDS011;13104;51.030;4.686;2024-01-06T03:45:47;3.50;;;2.80;;
25123;SDS011;13104;51.030;4.686;2024-01-06T03:48:13;3.17;;;2.42;;
25123;SDS011;13104;51.030;4.686;2024-01-06T03:50:40;5.50;;;2.35;;
25123;SDS011;13104;51.030;4.686;2024-01-06T03:53:06;4.20;;;2.72;;
25123;SDS011;13104;51.030;4.686;2024-01-06T03:55:32;3.10;;;2.13;;
25123;SDS011;13104;51.030;4.686;2024-01-06T03:57:58;5.53;;;2.83;;
25123;SDS011;13104;51.030;4.686;2024-01-06T04:00:25;4.50;;;1.85;;
25123;SDS011;13104;51.030;4.686;2024-01-06T04:02:51;7.28;;;3.17;;
25123;SDS011;13104;51.030;4.686;2024-01-06T04:05:17;3.90;;;2.25;;
25123;SDS011;13104;51.030;4.686;2024-01-06T04:07:43;4.03;;;2.65;;
25123;SDS011;13104;51.030;4.686;2024-01-06T04:10:10;1.90;;;1.58;;
25123;SDS011;13104;51.030;4.686;2024-01-06T04:12:36;2.00;;;1.45;;
25123;SDS011;13104;51.030;4.686;2024-01-06T04:15:02;1.50;;;1.40;;
25123;SDS011;13104;51.030;4.686;2024-01-06T04:17:28;4.43;;;2.08;;
25123;SDS011;13104;51.030;4.686;2024-01-06T04:19:54;3.80;;;2.22;;
25123;SDS011;13104;51.030;4.686;2024-01-06T04:22:20;4.05;;;1.92;;
25123;SDS011;13104;51.030;4.686;2024-01-06T04:24:46;3.65;;;2.05;;
25123;SDS011;13104;51.030;4.686;2024-01-06T04:27:12;17.38;;;2.65;;
25123;SDS011;13104;51.030;4.686;2024-01-06T04:29:39;5.72;;;2.45;;
25123;SDS011;13104;51.030;4.686;2024-01-06T04:32:05;6.75;;;2.95;;
25123;SDS011;13104;51.030;4.686;2024-01-06T04:34:32;5.07;;;1.83;;
25123;SDS011;13104;51.030;4.686;2024-01-06T04:36:58;2.75;;;1.90;;
25123;SDS011;13104;51.030;4.686;2024-01-06T04:39:24;4.50;;;2.33;;
25123;SDS011;13104;51.030;4.686;2024-01-06T04:41:50;2.90;;;2.10;;
25123;SDS011;13104;51.030;4.686;2024-01-06T04:44:19;4.15;;;2.45;;
25123;SDS011;13104;51.030;4.686;2024-01-06T04:46:46;6.47;;;3.03;;
25123;SDS011;13104;51.030;4.686;2024-01-06T04:49:12;2.72;;;2.03;;
25123;SDS011;13104;51.030;4.686;2024-01-06T04:51:38;4.05;;;2.60;;
25123;SDS011;13104;51.030;4.686;2024-01-06T04:54:04;6.25;;;2.72;;
25123;SDS011;13104;51.030;4.686;2024-01-06T04:56:30;4.47;;;2.47;;
25123;SDS011;13104;51.030;4.686;2024-01-06T04:58:56;3.88;;;2.55;;
25123;SDS011;13104;51.030;4.686;2024-01-06T05:01:22;5.40;;;3.03;;
25123;SDS011;13104;51.030;4.686;2024-01-06T05:03:49;4.75;;;2.47;;
25123;SDS011;13104;51.030;4.686;2024-01-06T05:06:15;3.05;;;2.30;;
25123;SDS011;13104;51.030;4.686;2024-01-06T05:08:41;7.95;;;2.97;;
25123;SDS011;13104;51.030;4.686;2024-01-06T05:11:10;5.25;;;2.38;;
25123;SDS011;13104;51.030;4.686;2024-01-06T05:13:37;3.88;;;2.88;;
25123;SDS011;13104;51.030;4.686;2024-01-06T05:16:04;6.95;;;3.22;;
25123;SDS011;13104;51.030;4.686;2024-01-06T05:18:30;5.10;;;2.85;;
25123;SDS011;13104;51.030;4.686;2024-01-06T05:20:56;8.27;;;2.78;;
25123;SDS011;13104;51.030;4.686;2024-01-06T05:23:22;5.90;;;2.90;;
25123;SDS011;13104;51.030;4.686;2024-01-06T05:25:48;10.38;;;2.38;;
25123;SDS011;13104;51.030;4.686;2024-01-06T05:28:14;4.15;;;2.75;;
25123;SDS011;13104;51.030;4.686;2024-01-06T05:30:40;5.07;;;2.88;;
25123;SDS011;13104;51.030;4.686;2024-01-06T05:33:09;3.63;;;2.65;;
25123;SDS011;13104;51.030;4.686;2024-01-06T05:35:35;3.88;;;2.47;;
25123;SDS011;13104;51.030;4.686;2024-01-06T05:38:01;9.07;;;3.38;;
25123;SDS011;13104;51.030;4.686;2024-01-06T05:40:29;4.07;;;2.25;;
25123;SDS011;13104;51.030;4.686;2024-01-06T05:42:55;3.70;;;2.33;;
25123;SDS011;13104;51.030;4.686;2024-01-06T05:45:22;6.05;;;2.85;;
25123;SDS011;13104;51.030;4.686;2024-01-06T05:47:48;3.08;;;2.22;;
25123;SDS011;13104;51.030;4.686;2024-01-06T05:50:17;2.78;;;2.33;;
25123;SDS011;13104;51.030;4.686;2024-01-06T05:52:43;5.97;;;2.22;;
25123;SDS011;13104;51.030;4.686;2024-01-06T05:55:12;5.10;;;2.42;;
25123;SDS011;13104;51.030;4.686;2024-01-06T05:57:38;6.25;;;2.08;;
25123;SDS011;13104;51.030;4.686;2024-01-06T06:00:07;3.78;;;1.92;;
25123;SDS011;13104;51.030;4.686;2024-01-06T06:02:33;2.47;;;1.67;;
25123;SDS011;13104;51.030;4.686;2024-01-06T06:04:59;2.38;;;1.63;;
25123;SDS011;13104;51.030;4.686;2024-01-06T06:07:26;4.80;;;1.38;;
25123;SDS011;13104;51.030;4.686;2024-01-06T06:09:52;4.35;;;1.70;;
25123;SDS011;13104;51.030;4.686;2024-01-06T06:12:19;3.83;;;1.83;;
25123;SDS011;13104;51.030;4.686;2024-01-06T06:14:45;2.25;;;1.55;;
25123;SDS011;13104;51.030;4.686;2024-01-06T06:17:11;6.25;;;1.30;;
25123;SDS011;13104;51.030;4.686;2024-01-06T06:19:37;2.08;;;1.40;;
25123;SDS011;13104;51.030;4.686;2024-01-06T06:22:03;2.13;;;1.42;;
25123;SDS011;13104;51.030;4.686;2024-01-06T06:24:29;2.42;;;1.45;;
25123;SDS011;13104;51.030;4.686;2024-01-06T06:26:56;1.73;;;1.35;;
25123;SDS011;13104;51.030;4.686;2024-01-06T06:29:22;1.88;;;1.55;;
25123;SDS011;13104;51.030;4.686;2024-01-06T06:31:49;2.20;;;1.50;;
25123;SDS011;13104;51.030;4.686;2024-01-06T06:34:15;3.55;;;2.03;;
25123;SDS011;13104;51.030;4.686;2024-01-06T06:36:41;1.42;;;1.33;;
25123;SDS011;13104;51.030;4.686;2024-01-06T06:39:07;5.45;;;1.38;;
25123;SDS011;13104;51.030;4.686;2024-01-06T06:41:34;2.38;;;1.73;;
25123;SDS011;13104;51.030;4.686;2024-01-06T06:44:00;1.45;;;1.27;;
25123;SDS011;13104;51.030;4.686;2024-01-06T06:46:26;3.95;;;1.70;;
25123;SDS011;13104;51.030;4.686;2024-01-06T06:48:52;4.10;;;1.52;;
25123;SDS011;13104;51.030;4.686;2024-01-06T06:51:18;3.53;;;2.13;;
25123;SDS011;13104;51.030;4.686;2024-01-06T06:53:46;3.25;;;1.73;;
25123;SDS011;13104;51.030;4.686;2024-01-06T06:56:13;5.13;;;2.70;;
25123;SDS011;13104;51.030;4.686;2024-01-06T06:58:42;4.00;;;2.30;;
25123;SDS011;13104;51.030;4.686;2024-01-06T07:01:08;7.85;;;2.85;;
25123;SDS011;13104;51.030;4.686;2024-01-06T07:03:34;2.72;;;2.15;;
25123;SDS011;13104;51.030;4.686;2024-01-06T07:06:00;2.33;;;1.92;;
25123;SDS011;13104;51.030;4.686;2024-01-06T07:08:26;3.50;;;2.08;;
25123;SDS011;13104;51.030;4.686;2024-01-06T07:10:52;4.43;;;2.25;;
25123;SDS011;13104;51.030;4.686;2024-01-06T07:13:18;6.13;;;2.38;;
25123;SDS011;13104;51.030;4.686;2024-01-06T07:15:44;5.70;;;2.65;;
25123;SDS011;13104;51.030;4.686;2024-01-06T07:18:10;4.80;;;2.03;;
25123;SDS011;13104;51.030;4.686;2024-01-06T07:20:37;4.95;;;2.47;;
25123;SDS011;13104;51.030;4.686;2024-01-06T07:23:03;4.78;;;2.72;;
25123;SDS011;13104;51.030;4.686;2024-01-06T07:25:29;4.40;;;2.58;;
25123;SDS011;13104;51.030;4.686;2024-01-06T07:27:55;3.58;;;2.38;;
25123;SDS011;13104;51.030;4.686;2024-01-06T07:30:21;4.22;;;2.45;;
25123;SDS011;13104;51.030;4.686;2024-01-06T07:32:47;2.20;;;2.00;;
25123;SDS011;13104;51.030;4.686;2024-01-06T07:35:15;2.47;;;2.22;;
25123;SDS011;13104;51.030;4.686;2024-01-06T07:37:41;2.35;;;1.92;;
25123;SDS011;13104;51.030;4.686;2024-01-06T07:40:07;3.67;;;1.92;;
25123;SDS011;13104;51.030;4.686;2024-01-06T07:42:34;8.82;;;2.22;;
25123;SDS011;13104;51.030;4.686;2024-01-06T07:45:00;4.70;;;2.20;;
25123;SDS011;13104;51.030;4.686;2024-01-06T07:47:27;2.05;;;1.70;;
25123;SDS011;13104;51.030;4.686;2024-01-06T07:49:53;5.90;;;2.75;;
25123;SDS011;13104;51.030;4.686;2024-01-06T07:52:19;2.90;;;2.22;;
25123;SDS011;13104;51.030;4.686;2024-01-06T07:54:45;3.22;;;1.85;;
25123;SDS011;13104;51.030;4.686;2024-01-06T07:57:11;6.70;;;2.83;;
25123;SDS011;13104;51.030;4.686;2024-01-06T07:59:38;4.15;;;2.10;;
25123;SDS011;13104;51.030;4.686;2024-01-06T08:02:04;6.15;;;2.70;;
25123;SDS011;13104;51.030;4.686;2024-01-06T08:04:30;5.10;;;2.97;;
25123;SDS011;13104;51.030;4.686;2024-01-06T08:06:56;4.07;;;2.97;;
25123;SDS011;13104;51.030;4.686;2024-01-06T08:09:22;2.03;;;1.35;;
25123;SDS011;13104;51.030;4.686;2024-01-06T08:11:48;2.50;;;2.10;;
25123;SDS011;13104;51.030;4.686;2024-01-06T08:14:15;4.90;;;2.90;;
25123;SDS011;13104;51.030;4.686;2024-01-06T08:16:42;4.00;;;2.15;;
25123;SDS011;13104;51.030;4.686;2024-01-06T08:19:08;3.30;;;1.73;;
25123;SDS011;13104;51.030;4.686;2024-01-06T08:21:34;8.80;;;1.98;;
25123;SDS011;13104;51.030;4.686;2024-01-06T08:24:01;1.80;;;1.30;;
25123;SDS011;13104;51.030;4.686;2024-01-06T08:26:27;3.15;;;1.73;;
25123;SDS011;13104;51.030;4.686;2024-01-06T08:28:53;2.58;;;1.70;;
25123;SDS011;13104;51.030;4.686;2024-01-06T08:31:20;16.50;;;1.92;;
25123;SDS011;13104;51.030;4.686;2024-01-06T08:33:47;1.55;;;1.35;;
25123;SDS011;13104;51.030;4.686;2024-01-06T08:36:13;2.53;;;1.33;;
25123;SDS011;13104;51.030;4.686;2024-01-06T08:38:39;2.67;;;1.55;;
25123;SDS011;13104;51.030;4.686;2024-01-06T08:41:05;5.32;;;1.83;;
25123;SDS011;13104;51.030;4.686;2024-01-06T08:43:31;4.13;;;1.90;;
25123;SDS011;13104;51.030;4.686;2024-01-06T08:45:57;2.95;;;1.17;;
25123;SDS011;13104;51.030;4.686;2024-01-06T08:48:24;9.70;;;1.40;;
25123;SDS011;13104;51.030;4.686;2024-01-06T08:50:50;2.33;;;1.50;;
25123;SDS011;13104;51.030;4.686;2024-01-06T08:53:16;3.28;;;1.75;;
25123;SDS011;13104;51.030;4.686;2024-01-06T08:55:42;1.75;;;1.33;;
25123;SDS011;13104;51.030;4.686;2024-01-06T08:58:08;4.88;;;1.75;;
25123;SDS011;13104;51.030;4.686;2024-01-06T09:00:35;4.88;;;1.30;;
25123;SDS011;13104;51.030;4.686;2024-01-06T09:03:01;2.30;;;1.13;;
25123;SDS011;13104;51.030;4.686;2024-01-06T09:05:27;2.33;;;1.02;;
25123;SDS011;13104;51.030;4.686;2024-01-06T09:07:53;1.65;;;1.20;;
25123;SDS011;13104;51.030;4.686;2024-01-06T09:10:19;1.50;;;1.40;;
25123;SDS011;13104;51.030;4.686;2024-01-06T09:12:45;1.27;;;1.17;;
25123;SDS011;13104;51.030;4.686;2024-01-06T09:15:12;1.40;;;1.17;;
25123;SDS011;13104;51.030;4.686;2024-01-06T09:17:38;3.15;;;1.45;;
25123;SDS011;13104;51.030;4.686;2024-01-06T09:20:05;1.73;;;1.10;;
25123;SDS011;13104;51.030;4.686;2024-01-06T09:22:31;1.27;;;1.15;;
25123;SDS011;13104;51.030;4.686;2024-01-06T09:24:57;1.20;;;0.98;;
25123;SDS011;13104;51.030;4.686;2024-01-06T09:27:24;1.35;;;1.23;;
25123;SDS011;13104;51.030;4.686;2024-01-06T09:29:50;1.75;;;1.20;;
25123;SDS011;13104;51.030;4.686;2024-01-06T09:32:16;6.75;;;1.85;;
25123;SDS011;13104;51.030;4.686;2024-01-06T09:34:42;2.33;;;1.40;;
25123;SDS011;13104;51.030;4.686;2024-01-06T09:37:08;1.75;;;0.98;;
25123;SDS011;13104;51.030;4.686;2024-01-06T09:39:34;2.28;;;1.30;;
25123;SDS011;13104;51.030;4.686;2024-01-06T09:42:00;2.97;;;1.55;;
25123;SDS011;13104;51.030;4.686;2024-01-06T09:44:27;1.27;;;1.13;;
25123;SDS011;13104;51.030;4.686;2024-01-06T09:46:53;2.50;;;1.33;;
25123;SDS011;13104;51.030;4.686;2024-01-06T09:49:22;2.63;;;2.03;;
25123;SDS011;13104;51.030;4.686;2024-01-06T09:51:49;5.75;;;1.73;;
25123;SDS011;13104;51.030;4.686;2024-01-06T09:54:20;1.60;;;1.27;;
25123;SDS011;13104;51.030;4.686;2024-01-06T09:56:49;1.17;;;1.08;;
25123;SDS011;13104;51.030;4.686;2024-01-06T09:59:15;2.95;;;1.80;;
25123;SDS011;13104;51.030;4.686;2024-01-06T10:01:41;3.88;;;2.05;;
25123;SDS011;13104;51.030;4.686;2024-01-06T10:04:08;3.88;;;1.65;;
25123;SDS011;13104;51.030;4.686;2024-01-06T10:06:34;3.30;;;2.00;;
25123;SDS011;13104;51.030;4.686;2024-01-06T10:09:01;3.70;;;1.70;;
25123;SDS011;13104;51.030;4.686;2024-01-06T10:11:29;1.48;;;1.38;;
25123;SDS011;13104;51.030;4.686;2024-01-06T10:13:55;2.47;;;1.98;;
25123;SDS011;13104;51.030;4.686;2024-01-06T10:16:22;5.03;;;1.92;;
25123;SDS011;13104;51.030;4.686;2024-01-06T10:18:48;3.85;;;2.15;;
25123;SDS011;13104;51.030;4.686;2024-01-06T10:21:14;2.80;;;1.60;;
25123;SDS011;13104;51.030;4.686;2024-01-06T10:23:42;2.85;;;1.85;;
25123;SDS011;13104;51.030;4.686;2024-01-06T10:26:13;1.52;;;1.42;;
25123;SDS011;13104;51.030;4.686;2024-01-06T10:28:40;3.10;;;1.55;;
25123;SDS011;13104;51.030;4.686;2024-01-06T10:31:07;6.72;;;2.47;;
25123;SDS011;13104;51.030;4.686;2024-01-06T10:33:33;3.10;;;1.60;;
25123;SDS011;13104;51.030;4.686;2024-01-06T10:36:00;5.20;;;1.10;;
25123;SDS011;13104;51.030;4.686;2024-01-06T10:38:28;1.35;;;1.17;;
25123;SDS011;13104;51.030;4.686;2024-01-06T10:41:01;3.13;;;1.95;;
25123;SDS011;13104;51.030;4.686;2024-01-06T10:43:32;7.97;;;2.35;;
25123;SDS011;13104;51.030;4.686;2024-01-06T10:46:02;2.83;;;1.48;;
25123;SDS011;13104;51.030;4.686;2024-01-06T10:48:32;3.45;;;1.90;;
25123;SDS011;13104;51.030;4.686;2024-01-06T10:51:00;2.75;;;1.90;;
25123;SDS011;13104;51.030;4.686;2024-01-06T10:53:27;3.70;;;1.70;;
25123;SDS011;13104;51.030;4.686;2024-01-06T10:55:53;2.17;;;1.20;;
25123;SDS011;13104;51.030;4.686;2024-01-06T10:58:20;2.08;;;1.27;;
25123;SDS011;13104;51.030;4.686;2024-01-06T11:00:47;2.63;;;1.45;;
25123;SDS011;13104;51.030;4.686;2024-01-06T11:03:13;3.58;;;2.03;;
25123;SDS011;13104;51.030;4.686;2024-01-06T11:05:42;2.15;;;1.60;;
25123;SDS011;13104;51.030;4.686;2024-01-06T11:08:09;1.10;;;0.82;;
25123;SDS011;13104;51.030;4.686;2024-01-06T11:10:36;3.45;;;1.48;;
25123;SDS011;13104;51.030;4.686;2024-01-06T11:13:13;1.58;;;1.00;;
25123;SDS011;13104;51.030;4.686;2024-01-06T11:15:49;2.05;;;1.17;;
25123;SDS011;13104;51.030;4.686;2024-01-06T11:23:37;3.83;;;1.45;;
25123;SDS011;13104;51.030;4.686;2024-01-06T11:26:05;2.53;;;1.15;;
25123;SDS011;13104;51.030;4.686;2024-01-06T11:28:42;1.67;;;1.30;;
25123;SDS011;13104;51.030;4.686;2024-01-06T11:31:08;0.73;;;0.73;;
25123;SDS011;13104;51.030;4.686;2024-01-06T11:33:40;1.75;;;1.23;;
25123;SDS011;13104;51.030;4.686;2024-01-06T11:36:10;1.83;;;1.15;;
25123;SDS011;13104;51.030;4.686;2024-01-06T11:38:39;2.25;;;1.27;;
25123;SDS011;13104;51.030;4.686;2024-01-06T11:41:08;1.73;;;1.45;;
25123;SDS011;13104;51.030;4.686;2024-01-06T11:43:37;2.42;;;1.67;;
25123;SDS011;13104;51.030;4.686;2024-01-06T11:46:06;2.90;;;1.35;;
25123;SDS011;13104;51.030;4.686;2024-01-06T11:48:33;3.90;;;1.63;;
25123;SDS011;13104;51.030;4.686;2024-01-06T11:51:01;1.88;;;1.20;;
25123;SDS011;13104;51.030;4.686;2024-01-06T11:53:28;2.10;;;1.30;;
25123;SDS011;13104;51.030;4.686;2024-01-06T11:55:54;2.67;;;1.67;;
25123;SDS011;13104;51.030;4.686;2024-01-06T11:58:20;0.98;;;0.90;;
25123;SDS011;13104;51.030;4.686;2024-01-06T12:00:54;1.85;;;1.23;;
25123;SDS011;13104;51.030;4.686;2024-01-06T12:03:21;3.75;;;1.63;;
25123;SDS011;13104;51.030;4.686;2024-01-06T12:06:01;1.48;;;1.17;;
25123;SDS011;13104;51.030;4.686;2024-01-06T12:08:27;1.83;;;1.38;;
25123;SDS011;13104;51.030;4.686;2024-01-06T12:11:03;2.75;;;1.25;;
25123;SDS011;13104;51.030;4.686;2024-01-06T12:13:30;1.80;;;1.23;;
25123;SDS011;13104;51.030;4.686;2024-01-06T12:15:56;5.43;;;1.98;;
25123;SDS011;13104;51.030;4.686;2024-01-06T12:18:22;2.35;;;1.45;;
25123;SDS011;13104;51.030;4.686;2024-01-06T12:20:49;5.75;;;2.20;;
25123;SDS011;13104;51.030;4.686;2024-01-06T12:23:28;2.45;;;1.80;;
25123;SDS011;13104;51.030;4.686;2024-01-06T12:25:55;1.80;;;1.30;;
25123;SDS011;13104;51.030;4.686;2024-01-06T12:28:21;1.27;;;1.08;;
25123;SDS011;13104;51.030;4.686;2024-01-06T12:30:48;2.72;;;1.83;;
25123;SDS011;13104;51.030;4.686;2024-01-06T12:33:14;1.13;;;1.02;;
25123;SDS011;13104;51.030;4.686;2024-01-06T12:35:40;4.15;;;1.90;;
25123;SDS011;13104;51.030;4.686;2024-01-06T12:38:08;2.92;;;1.70;;
25123;SDS011;13104;51.030;4.686;2024-01-06T12:40:35;4.95;;;1.98;;
25123;SDS011;13104;51.030;4.686;2024-01-06T12:43:02;4.40;;;1.75;;
25123;SDS011;13104;51.030;4.686;2024-01-06T12:45:28;1.75;;;1.35;;
25123;SDS011;13104;51.030;4.686;2024-01-06T12:47:55;1.90;;;1.35;;
25123;SDS011;13104;51.030;4.686;2024-01-06T12:50:21;2.33;;;1.45;;
25123;SDS011;13104;51.030;4.686;2024-01-06T12:52:47;1.77;;;1.27;;
25123;SDS011;13104;51.030;4.686;2024-01-06T12:55:13;1.67;;;1.27;;
25123;SDS011;13104;51.030;4.686;2024-01-06T12:57:40;4.40;;;1.80;;
25123;SDS011;13104;51.030;4.686;2024-01-06T13:00:07;1.50;;;1.23;;
25123;SDS011;13104;51.030;4.686;2024-01-06T13:02:36;2.30;;;1.38;;
25123;SDS011;13104;51.030;4.686;2024-01-06T13:05:02;3.70;;;1.55;;
25123;SDS011;13104;51.030;4.686;2024-01-06T13:07:29;1.98;;;1.67;;
25123;SDS011;13104;51.030;4.686;2024-01-06T13:09:55;2.05;;;1.83;;
25123;SDS011;13104;51.030;4.686;2024-01-06T13:12:21;2.65;;;2.08;;
25123;SDS011;13104;51.030;4.686;2024-01-06T13:14:48;2.08;;;1.75;;
25123;SDS011;13104;51.030;4.686;2024-01-06T13:17:16;2.15;;;1.58;;
25123;SDS011;13104;51.030;4.686;2024-01-06T13:19:42;2.58;;;1.42;;
25123;SDS011;13104;51.030;4.686;2024-01-06T13:22:08;2.35;;;1.35;;
25123;SDS011;13104;51.030;4.686;2024-01-06T13:24:34;3.17;;;2.03;;
25123;SDS011;13104;51.030;4.686;2024-01-06T13:27:00;1.77;;;1.58;;
25123;SDS011;13104;51.030;4.686;2024-01-06T13:29:28;0.93;;;0.93;;
25123;SDS011;13104;51.030;4.686;2024-01-06T13:31:54;1.13;;;0.95;;
25123;SDS011;13104;51.030;4.686;2024-01-06T13:34:22;3.65;;;1.13;;
25123;SDS011;13104;51.030;4.686;2024-01-06T13:36:48;1.83;;;1.38;;
25123;SDS011;13104;51.030;4.686;2024-01-06T13:39:14;1.67;;;1.58;;
25123;SDS011;13104;51.030;4.686;2024-01-06T13:41:45;1.80;;;1.17;;
25123;SDS011;13104;51.030;4.686;2024-01-06T13:44:13;2.85;;;1.50;;
25123;SDS011;13104;51.030;4.686;2024-01-06T13:46:39;1.50;;;1.17;;
25123;SDS011;13104;51.030;4.686;2024-01-06T13:49:12;1.98;;;1.13;;
25123;SDS011;13104;51.030;4.686;2024-01-06T13:51:39;1.05;;;0.90;;
25123;SDS011;13104;51.030;4.686;2024-01-06T13:54:05;1.70;;;1.23;;
25123;SDS011;13104;51.030;4.686;2024-01-06T13:56:31;2.33;;;1.23;;
25123;SDS011;13104;51.030;4.686;2024-01-06T13:58:57;2.75;;;1.65;;
25123;SDS011;13104;51.030;4.686;2024-01-06T14:01:23;1.25;;;0.95;;
25123;SDS011;13104;51.030;4.686;2024-01-06T14:03:50;3.63;;;1.88;;
25123;SDS011;13104;51.030;4.686;2024-01-06T14:06:22;2.35;;;1.65;;
25123;SDS011;13104;51.030;4.686;2024-01-06T14:08:48;3.05;;;1.48;;
25123;SDS011;13104;51.030;4.686;2024-01-06T14:11:14;1.17;;;0.90;;
25123;SDS011;13104;51.030;4.686;2024-01-06T14:13:41;2.45;;;1.73;;
25123;SDS011;13104;51.030;4.686;2024-01-06T14:16:07;2.42;;;1.63;;
25123;SDS011;13104;51.030;4.686;2024-01-06T14:18:33;2.30;;;1.23;;
25123;SDS011;13104;51.030;4.686;2024-01-06T14:20:59;4.47;;;1.65;;
25123;SDS011;13104;51.030;4.686;2024-01-06T14:23:25;4.03;;;1.63;;
25123;SDS011;13104;51.030;4.686;2024-01-06T14:25:54;3.00;;;1.90;;
25123;SDS011;13104;51.030;4.686;2024-01-06T14:28:20;1.73;;;1.58;;
25123;SDS011;13104;51.030;4.686;2024-01-06T14:30:46;1.52;;;1.42;;
25123;SDS011;13104;51.030;4.686;2024-01-06T14:33:13;4.22;;;1.60;;
25123;SDS011;13104;51.030;4.686;2024-01-06T14:35:39;2.13;;;1.67;;
25123;SDS011;13104;51.030;4.686;2024-01-06T14:38:06;1.92;;;1.17;;
25123;SDS011;13104;51.030;4.686;2024-01-06T14:40:32;5.15;;;1.85;;
25123;SDS011;13104;51.030;4.686;2024-01-06T14:42:59;3.38;;;2.03;;
25123;SDS011;13104;51.030;4.686;2024-01-06T14:45:27;3.60;;;1.70;;
25123;SDS011;13104;51.030;4.686;2024-01-06T14:47:53;2.47;;;1.92;;
25123;SDS011;13104;51.030;4.686;2024-01-06T14:50:19;7.35;;;2.50;;